CES6236 ZYHB-ZBAD
Flight info
| Callsign | CES6236 |
|---|---|
| Flight time | 1h 55m |
| Altitude | 38100 |
| Route | LEG08D LEGAG W204 RUSBO G212 BUMDU BUMDU5L |
| Aircraft | A20N/M-SDE2E3FGHIRWXY/LB1 |
Departure
| Time | 2026-04-25 08:33 |
|---|---|
| Airport | Harbin Taiping International Airport (ZYHB) |
Arrival
| Time | 2026-04-25 10:28 |
|---|---|
| Airport | Beijing Daxing International Airport (ZBAD) |
| Time | Latitude | Longitude | Altitude | Speed | Heading |
|---|---|---|---|---|---|
| 2026-04-25 08:15 | 45.62068 | 126.23970 | 510 ft | 0 kts | 309° |
| 2026-04-25 08:18 | 45.62065 | 126.23975 | 510 ft | 2 kts | 309° |
| 2026-04-25 08:19 | 45.62056 | 126.23991 | 510 ft | 1 kts | 309° |
| 2026-04-25 08:19 | 45.62049 | 126.24003 | 510 ft | 2 kts | 302° |
| 2026-04-25 08:19 | 45.62043 | 126.24022 | 510 ft | 2 kts | 288° |
| 2026-04-25 08:19 | 45.62040 | 126.24043 | 510 ft | 2 kts | 274° |
| 2026-04-25 08:20 | 45.62040 | 126.24064 | 510 ft | 2 kts | 261° |
| 2026-04-25 08:20 | 45.62043 | 126.24083 | 510 ft | 2 kts | 248° |
| 2026-04-25 08:20 | 45.62050 | 126.24103 | 510 ft | 2 kts | 234° |
| 2026-04-25 08:20 | 45.62059 | 126.24118 | 510 ft | 1 kts | 222° |
| 2026-04-25 08:21 | 45.62064 | 126.24124 | 510 ft | 1 kts | 218° |
| 2026-04-25 08:21 | 45.62065 | 126.24125 | 510 ft | 0 kts | 218° |
| 2026-04-25 08:21 | 45.62062 | 126.24121 | 510 ft | 1 kts | 219° |
| 2026-04-25 08:21 | 45.62052 | 126.24110 | 510 ft | 2 kts | 218° |
| 2026-04-25 08:22 | 45.62022 | 126.24075 | 510 ft | 6 kts | 219° |
| 2026-04-25 08:22 | 45.61974 | 126.24019 | 510 ft | 11 kts | 219° |
| 2026-04-25 08:22 | 45.61909 | 126.23945 | 510 ft | 12 kts | 216° |
| 2026-04-25 08:22 | 45.61840 | 126.23865 | 510 ft | 13 kts | 219° |
| 2026-04-25 08:23 | 45.61763 | 126.23776 | 510 ft | 15 kts | 219° |
| 2026-04-25 08:23 | 45.61693 | 126.23729 | 510 ft | 10 kts | 155° |
| 2026-04-25 08:23 | 45.61623 | 126.23731 | 510 ft | 11 kts | 212° |
| 2026-04-25 08:23 | 45.61549 | 126.23644 | 510 ft | 16 kts | 219° |
| 2026-04-25 08:24 | 45.61439 | 126.23515 | 510 ft | 22 kts | 220° |
| 2026-04-25 08:24 | 45.61319 | 126.23374 | 510 ft | 21 kts | 220° |
| 2026-04-25 08:24 | 45.61201 | 126.23236 | 510 ft | 22 kts | 218° |
| 2026-04-25 08:24 | 45.61082 | 126.23096 | 510 ft | 21 kts | 220° |
| 2026-04-25 08:25 | 45.60966 | 126.22962 | 510 ft | 21 kts | 219° |
| 2026-04-25 08:25 | 45.60865 | 126.22842 | 510 ft | 10 kts | 219° |
| 2026-04-25 08:25 | 45.60799 | 126.22845 | 510 ft | 11 kts | 135° |
| 2026-04-25 08:25 | 45.60742 | 126.22942 | 510 ft | 14 kts | 129° |
| 2026-04-25 08:26 | 45.60671 | 126.23067 | 510 ft | 17 kts | 128° |
| 2026-04-25 08:26 | 45.60586 | 126.23215 | 510 ft | 19 kts | 129° |
| 2026-04-25 08:26 | 45.60499 | 126.23367 | 510 ft | 19 kts | 128° |
| 2026-04-25 08:26 | 45.60409 | 126.23521 | 510 ft | 19 kts | 133° |
| 2026-04-25 08:27 | 45.60324 | 126.23616 | 510 ft | 14 kts | 187° |
| 2026-04-25 08:27 | 45.60239 | 126.23529 | 510 ft | 16 kts | 219° |
| 2026-04-25 08:27 | 45.60138 | 126.23411 | 510 ft | 21 kts | 219° |
| 2026-04-25 08:27 | 45.60014 | 126.23266 | 510 ft | 24 kts | 219° |
| 2026-04-25 08:28 | 45.59878 | 126.23107 | 510 ft | 24 kts | 219° |
| 2026-04-25 08:28 | 45.59749 | 126.22954 | 510 ft | 23 kts | 218° |
| 2026-04-25 08:28 | 45.59625 | 126.22809 | 510 ft | 22 kts | 220° |
| 2026-04-25 08:28 | 45.59504 | 126.22669 | 510 ft | 21 kts | 219° |
| 2026-04-25 08:29 | 45.59387 | 126.22530 | 510 ft | 21 kts | 219° |
| 2026-04-25 08:29 | 45.59273 | 126.22397 | 510 ft | 21 kts | 219° |
| 2026-04-25 08:29 | 45.59158 | 126.22262 | 510 ft | 23 kts | 217° |
| 2026-04-25 08:29 | 45.59012 | 126.22092 | 510 ft | 30 kts | 219° |
| 2026-04-25 08:30 | 45.58836 | 126.21884 | 510 ft | 35 kts | 219° |
| 2026-04-25 08:30 | 45.58645 | 126.21661 | 510 ft | 34 kts | 219° |
| 2026-04-25 08:30 | 45.58465 | 126.21450 | 510 ft | 32 kts | 219° |
| 2026-04-25 08:30 | 45.58293 | 126.21249 | 510 ft | 30 kts | 219° |
| 2026-04-25 08:31 | 45.58133 | 126.21061 | 510 ft | 28 kts | 219° |
| 2026-04-25 08:31 | 45.57982 | 126.20882 | 510 ft | 27 kts | 219° |
| 2026-04-25 08:31 | 45.57856 | 126.20762 | 510 ft | 17 kts | 171° |
| 2026-04-25 08:31 | 45.57771 | 126.20887 | 510 ft | 16 kts | 106° |
| 2026-04-25 08:32 | 45.57842 | 126.21012 | 510 ft | 19 kts | 39° |
| 2026-04-25 08:32 | 45.58136 | 126.21350 | 510 ft | 90 kts | 40° |
| 2026-04-25 08:32 | 45.58781 | 126.22111 | 511 ft | 147 kts | 38° |
| 2026-04-25 08:32 | 45.59634 | 126.23111 | 845 ft | 163 kts | 38° |
| 2026-04-25 08:33 | 45.60500 | 126.24129 | 1490 ft | 163 kts | 36° |
| 2026-04-25 08:33 | 45.61350 | 126.25124 | 2216 ft | 158 kts | 36° |
| 2026-04-25 08:33 | 45.62226 | 126.26141 | 2709 ft | 168 kts | 36° |
| 2026-04-25 08:33 | 45.63190 | 126.27261 | 3132 ft | 185 kts | 37° |
| 2026-04-25 08:34 | 45.64233 | 126.28479 | 3565 ft | 201 kts | 37° |
| 2026-04-25 08:34 | 45.65373 | 126.29815 | 3939 ft | 223 kts | 36° |
| 2026-04-25 08:34 | 45.66624 | 126.31282 | 4407 ft | 241 kts | 36° |
| 2026-04-25 08:34 | 45.67923 | 126.32814 | 5165 ft | 247 kts | 36° |
| 2026-04-25 08:35 | 45.69248 | 126.34381 | 5984 ft | 251 kts | 35° |
| 2026-04-25 08:35 | 45.70600 | 126.35974 | 6779 ft | 255 kts | 34° |
| 2026-04-25 08:35 | 45.72087 | 126.37363 | 7387 ft | 259 kts | 12° |
| 2026-04-25 08:35 | 45.73853 | 126.37586 | 7837 ft | 260 kts | 341° |
| 2026-04-25 08:36 | 45.75484 | 126.36531 | 8409 ft | 258 kts | 314° |
| 2026-04-25 08:36 | 45.76550 | 126.34576 | 9206 ft | 250 kts | 288° |
| 2026-04-25 08:36 | 45.76913 | 126.32216 | 10076 ft | 244 kts | 272° |
| 2026-04-25 08:36 | 45.77069 | 126.29780 | 10745 ft | 252 kts | 274° |
| 2026-04-25 08:37 | 45.77261 | 126.27187 | 11133 ft | 269 kts | 273° |
| 2026-04-25 08:37 | 45.77461 | 126.24468 | 11451 ft | 287 kts | 274° |
| 2026-04-25 08:37 | 45.77670 | 126.21561 | 11794 ft | 303 kts | 274° |
| 2026-04-25 08:37 | 45.77887 | 126.18520 | 12418 ft | 310 kts | 274° |
| 2026-04-25 08:38 | 45.78101 | 126.15459 | 13172 ft | 311 kts | 274° |
| 2026-04-25 08:38 | 45.78314 | 126.12405 | 13886 ft | 313 kts | 274° |
| 2026-04-25 08:38 | 45.78532 | 126.09275 | 14567 ft | 316 kts | 274° |
| 2026-04-25 08:38 | 45.78719 | 126.06136 | 15218 ft | 319 kts | 271° |
| 2026-04-25 08:39 | 45.78715 | 126.02986 | 15864 ft | 321 kts | 266° |
| 2026-04-25 08:39 | 45.78498 | 125.99791 | 16503 ft | 324 kts | 262° |
| 2026-04-25 08:39 | 45.78110 | 125.96595 | 17106 ft | 326 kts | 261° |
| 2026-04-25 08:39 | 45.77694 | 125.93371 | 17680 ft | 330 kts | 261° |
| 2026-04-25 08:40 | 45.77276 | 125.90168 | 18247 ft | 333 kts | 261° |
| 2026-04-25 08:40 | 45.76843 | 125.86880 | 18841 ft | 335 kts | 261° |
| 2026-04-25 08:40 | 45.76414 | 125.83640 | 19371 ft | 338 kts | 261° |
| 2026-04-25 08:40 | 45.75969 | 125.80298 | 19901 ft | 342 kts | 261° |
| 2026-04-25 08:41 | 45.75520 | 125.76946 | 20467 ft | 344 kts | 261° |
| 2026-04-25 08:41 | 45.75074 | 125.73619 | 20989 ft | 346 kts | 261° |
| 2026-04-25 08:41 | 45.74615 | 125.70217 | 21455 ft | 350 kts | 261° |
| 2026-04-25 08:41 | 45.74158 | 125.66814 | 21944 ft | 353 kts | 261° |
| 2026-04-25 08:42 | 45.73686 | 125.63374 | 22443 ft | 355 kts | 259° |
| 2026-04-25 08:42 | 45.72815 | 125.60034 | 22876 ft | 364 kts | 245° |
| 2026-04-25 08:42 | 45.71285 | 125.57118 | 23324 ft | 375 kts | 231° |
| 2026-04-25 08:42 | 45.69180 | 125.54823 | 23750 ft | 390 kts | 217° |
| 2026-04-25 08:43 | 45.66643 | 125.53366 | 24173 ft | 404 kts | 206° |
| 2026-04-25 08:43 | 45.63956 | 125.52153 | 24588 ft | 406 kts | 206° |
| 2026-04-25 08:43 | 45.61240 | 125.50919 | 24940 ft | 410 kts | 206° |
| 2026-04-25 08:43 | 45.58537 | 125.49699 | 25342 ft | 412 kts | 206° |
| 2026-04-25 08:44 | 45.55807 | 125.48480 | 25731 ft | 414 kts | 206° |
| 2026-04-25 08:44 | 45.53059 | 125.47258 | 26142 ft | 416 kts | 206° |
| 2026-04-25 08:44 | 45.50293 | 125.46031 | 26484 ft | 419 kts | 206° |
| 2026-04-25 08:44 | 45.47491 | 125.44792 | 26816 ft | 421 kts | 206° |
| 2026-04-25 08:45 | 45.44715 | 125.43569 | 27145 ft | 423 kts | 206° |
| 2026-04-25 08:45 | 45.41894 | 125.42325 | 27465 ft | 425 kts | 206° |
| 2026-04-25 08:45 | 45.39041 | 125.41069 | 27798 ft | 427 kts | 206° |
| 2026-04-25 08:45 | 45.36187 | 125.39814 | 28118 ft | 428 kts | 206° |
| 2026-04-25 08:46 | 45.33368 | 125.38575 | 28402 ft | 430 kts | 206° |
| 2026-04-25 08:46 | 45.30522 | 125.37327 | 28754 ft | 430 kts | 206° |
| 2026-04-25 08:46 | 45.27648 | 125.36068 | 29146 ft | 429 kts | 205° |
| 2026-04-25 08:46 | 45.24803 | 125.34822 | 29568 ft | 427 kts | 205° |
| 2026-04-25 08:47 | 45.22003 | 125.33600 | 29970 ft | 426 kts | 205° |
| 2026-04-25 08:47 | 45.19154 | 125.32354 | 30337 ft | 426 kts | 205° |
| 2026-04-25 08:47 | 45.16351 | 125.31127 | 30723 ft | 425 kts | 205° |
| 2026-04-25 08:47 | 45.13524 | 125.29896 | 31124 ft | 423 kts | 205° |
| 2026-04-25 08:48 | 45.10779 | 125.28581 | 31495 ft | 418 kts | 209° |
| 2026-04-25 08:48 | 45.08157 | 125.26908 | 31807 ft | 412 kts | 215° |
| 2026-04-25 08:48 | 45.05678 | 125.24883 | 32010 ft | 409 kts | 220° |
| 2026-04-25 08:48 | 45.03359 | 125.22523 | 32257 ft | 405 kts | 225° |
| 2026-04-25 08:49 | 45.01270 | 125.19927 | 32555 ft | 400 kts | 230° |
| 2026-04-25 08:49 | 44.99383 | 125.17093 | 32899 ft | 395 kts | 235° |
| 2026-04-25 08:49 | 44.97697 | 125.14031 | 33233 ft | 390 kts | 239° |
| 2026-04-25 08:49 | 44.96134 | 125.10931 | 33529 ft | 389 kts | 239° |
| 2026-04-25 08:50 | 44.94576 | 125.07812 | 33810 ft | 388 kts | 239° |
| 2026-04-25 08:50 | 44.93044 | 125.04738 | 34061 ft | 388 kts | 240° |
| 2026-04-25 08:50 | 44.91482 | 125.01607 | 34292 ft | 387 kts | 239° |
| 2026-04-25 08:50 | 44.89933 | 124.98503 | 34526 ft | 387 kts | 240° |
| 2026-04-25 08:51 | 44.88406 | 124.95447 | 34771 ft | 386 kts | 240° |
| 2026-04-25 08:51 | 44.86848 | 124.92333 | 35035 ft | 385 kts | 240° |
| 2026-04-25 08:51 | 44.85317 | 124.89278 | 35246 ft | 384 kts | 239° |
| 2026-04-25 08:51 | 44.83769 | 124.86196 | 35421 ft | 383 kts | 239° |
| 2026-04-25 08:52 | 44.82222 | 124.83122 | 35549 ft | 383 kts | 240° |
| 2026-04-25 08:52 | 44.80700 | 124.80097 | 35662 ft | 384 kts | 239° |
| 2026-04-25 08:52 | 44.79139 | 124.76999 | 35791 ft | 384 kts | 240° |
| 2026-04-25 08:53 | 44.76054 | 124.70883 | 35984 ft | 386 kts | 239° |
| 2026-04-25 08:53 | 44.74501 | 124.67808 | 36093 ft | 386 kts | 240° |
| 2026-04-25 08:53 | 44.72952 | 124.64749 | 36181 ft | 387 kts | 239° |
| 2026-04-25 08:54 | 44.69826 | 124.58580 | 36340 ft | 388 kts | 239° |
| 2026-04-25 08:54 | 44.66703 | 124.52436 | 36490 ft | 389 kts | 239° |
| 2026-04-25 08:55 | 44.63562 | 124.46266 | 36649 ft | 390 kts | 239° |
| 2026-04-25 08:55 | 44.60724 | 124.39803 | 36745 ft | 388 kts | 247° |
| 2026-04-25 08:56 | 44.58619 | 124.32931 | 36849 ft | 386 kts | 253° |
| 2026-04-25 08:56 | 44.57240 | 124.25678 | 36957 ft | 386 kts | 261° |
| 2026-04-25 08:57 | 44.56129 | 124.18302 | 37114 ft | 387 kts | 257° |
| 2026-04-25 08:57 | 44.54384 | 124.11173 | 37235 ft | 391 kts | 249° |
| 2026-04-25 08:58 | 44.51879 | 124.04358 | 37365 ft | 396 kts | 242° |
| 2026-04-25 08:58 | 44.48740 | 123.97991 | 37470 ft | 399 kts | 239° |
| 2026-04-25 08:59 | 44.45512 | 123.91721 | 37584 ft | 401 kts | 238° |
| 2026-04-25 08:59 | 44.42252 | 123.85390 | 37685 ft | 402 kts | 239° |
| 2026-04-25 09:00 | 44.39001 | 123.79074 | 37766 ft | 403 kts | 239° |
| 2026-04-25 09:00 | 44.35727 | 123.72732 | 37845 ft | 404 kts | 238° |
| 2026-04-25 09:01 | 44.32425 | 123.66349 | 37853 ft | 405 kts | 238° |
| 2026-04-25 09:01 | 44.29150 | 123.60034 | 37837 ft | 404 kts | 239° |
| 2026-04-25 09:02 | 44.25853 | 123.53690 | 37839 ft | 404 kts | 239° |
| 2026-04-25 09:02 | 44.22569 | 123.47385 | 37851 ft | 404 kts | 238° |
| 2026-04-25 09:03 | 44.19272 | 123.41067 | 37847 ft | 404 kts | 238° |
| 2026-04-25 09:03 | 44.15977 | 123.34767 | 37835 ft | 403 kts | 238° |
| 2026-04-25 09:04 | 44.12656 | 123.28436 | 37832 ft | 403 kts | 238° |
| 2026-04-25 09:04 | 44.09348 | 123.22139 | 37832 ft | 403 kts | 238° |
| 2026-04-25 09:05 | 44.06059 | 123.15890 | 37826 ft | 403 kts | 238° |
| 2026-04-25 09:05 | 44.02741 | 123.09602 | 37846 ft | 403 kts | 238° |
| 2026-04-25 09:06 | 43.99435 | 123.03346 | 37837 ft | 404 kts | 238° |
| 2026-04-25 09:06 | 43.96118 | 122.97085 | 37848 ft | 404 kts | 238° |
| 2026-04-25 09:07 | 43.92789 | 122.90780 | 37850 ft | 404 kts | 238° |
| 2026-04-25 09:07 | 43.89548 | 122.84442 | 37815 ft | 404 kts | 239° |
| 2026-04-25 09:08 | 43.86315 | 122.78127 | 37831 ft | 406 kts | 239° |
| 2026-04-25 09:08 | 43.83034 | 122.71742 | 37803 ft | 406 kts | 239° |
| 2026-04-25 09:09 | 43.79784 | 122.65433 | 37827 ft | 405 kts | 239° |
| 2026-04-25 09:09 | 43.76506 | 122.59081 | 37822 ft | 406 kts | 238° |
| 2026-04-25 09:10 | 43.73220 | 122.52738 | 37813 ft | 406 kts | 239° |
| 2026-04-25 09:10 | 43.69933 | 122.46402 | 37807 ft | 406 kts | 239° |
| 2026-04-25 09:11 | 43.64984 | 122.36887 | 37824 ft | 406 kts | 238° |
| 2026-04-25 09:11 | 43.61694 | 122.30579 | 37813 ft | 408 kts | 238° |
| 2026-04-25 09:12 | 43.58384 | 122.24246 | 37810 ft | 407 kts | 238° |
| 2026-04-25 09:12 | 43.55097 | 122.17963 | 37808 ft | 407 kts | 239° |
| 2026-04-25 09:13 | 43.51830 | 122.11636 | 37809 ft | 407 kts | 238° |
| 2026-04-25 09:13 | 43.48534 | 122.05266 | 37806 ft | 408 kts | 239° |
| 2026-04-25 09:14 | 43.45256 | 121.98943 | 37799 ft | 408 kts | 239° |
| 2026-04-25 09:14 | 43.41953 | 121.92590 | 37798 ft | 409 kts | 239° |
| 2026-04-25 09:15 | 43.38652 | 121.86249 | 37806 ft | 410 kts | 239° |
| 2026-04-25 09:15 | 43.35340 | 121.79903 | 37796 ft | 411 kts | 239° |
| 2026-04-25 09:16 | 43.32010 | 121.73540 | 37793 ft | 411 kts | 239° |
| 2026-04-25 09:16 | 43.28690 | 121.67208 | 37796 ft | 412 kts | 239° |
| 2026-04-25 09:17 | 43.23688 | 121.57694 | 37799 ft | 412 kts | 239° |
| 2026-04-25 09:18 | 43.20329 | 121.51322 | 37795 ft | 413 kts | 239° |
| 2026-04-25 09:18 | 43.16988 | 121.45001 | 37796 ft | 413 kts | 239° |
| 2026-04-25 09:19 | 43.13624 | 121.38650 | 37784 ft | 413 kts | 239° |
| 2026-04-25 09:19 | 43.10241 | 121.32275 | 37779 ft | 414 kts | 238° |
| 2026-04-25 09:20 | 43.06879 | 121.25951 | 37779 ft | 415 kts | 238° |
| 2026-04-25 09:20 | 43.03484 | 121.19578 | 37780 ft | 415 kts | 238° |
| 2026-04-25 09:21 | 43.00086 | 121.13216 | 37771 ft | 416 kts | 238° |
| 2026-04-25 09:21 | 42.96663 | 121.06821 | 37761 ft | 417 kts | 238° |
| 2026-04-25 09:22 | 42.93263 | 121.00487 | 37777 ft | 417 kts | 238° |
| 2026-04-25 09:22 | 42.89848 | 120.94127 | 37784 ft | 417 kts | 238° |
| 2026-04-25 09:23 | 42.86420 | 120.87762 | 37779 ft | 416 kts | 238° |
| 2026-04-25 09:23 | 42.83016 | 120.81460 | 37776 ft | 416 kts | 238° |
| 2026-04-25 09:24 | 42.79586 | 120.75120 | 37786 ft | 417 kts | 238° |
| 2026-04-25 09:24 | 42.76146 | 120.68775 | 37785 ft | 418 kts | 238° |
| 2026-04-25 09:25 | 42.72705 | 120.62440 | 37777 ft | 417 kts | 238° |
| 2026-04-25 09:25 | 42.69275 | 120.56142 | 37784 ft | 417 kts | 238° |
| 2026-04-25 09:26 | 42.65822 | 120.49812 | 37777 ft | 418 kts | 238° |
| 2026-04-25 09:26 | 42.62377 | 120.43510 | 37781 ft | 419 kts | 238° |
| 2026-04-25 09:27 | 42.58902 | 120.37167 | 37777 ft | 418 kts | 238° |
| 2026-04-25 09:27 | 42.55440 | 120.30863 | 37777 ft | 419 kts | 237° |
| 2026-04-25 09:28 | 42.51964 | 120.24549 | 37780 ft | 418 kts | 238° |
| 2026-04-25 09:28 | 42.48494 | 120.18253 | 37781 ft | 419 kts | 238° |
| 2026-04-25 09:29 | 42.45006 | 120.11937 | 37773 ft | 419 kts | 237° |
| 2026-04-25 09:29 | 42.41520 | 120.05643 | 37795 ft | 419 kts | 238° |
| 2026-04-25 09:30 | 42.38035 | 119.99361 | 37791 ft | 421 kts | 237° |
| 2026-04-25 09:30 | 42.34531 | 119.93063 | 37799 ft | 420 kts | 238° |
| 2026-04-25 09:31 | 42.31011 | 119.86742 | 37807 ft | 421 kts | 238° |
| 2026-04-25 09:31 | 42.27496 | 119.80447 | 37809 ft | 422 kts | 238° |
| 2026-04-25 09:32 | 42.23949 | 119.74112 | 37807 ft | 421 kts | 238° |
| 2026-04-25 09:32 | 42.20424 | 119.67824 | 37817 ft | 422 kts | 238° |
| 2026-04-25 09:33 | 42.16907 | 119.61566 | 37825 ft | 422 kts | 238° |
| 2026-04-25 09:33 | 42.13366 | 119.55276 | 37827 ft | 422 kts | 238° |
| 2026-04-25 09:34 | 42.09831 | 119.49012 | 37829 ft | 422 kts | 238° |
| 2026-04-25 09:34 | 42.06273 | 119.42718 | 37814 ft | 422 kts | 238° |
| 2026-04-25 09:35 | 42.02729 | 119.36468 | 37817 ft | 422 kts | 238° |
| 2026-04-25 09:35 | 41.99191 | 119.30229 | 37815 ft | 422 kts | 238° |
| 2026-04-25 09:36 | 41.95628 | 119.23970 | 37819 ft | 422 kts | 238° |
| 2026-04-25 09:36 | 41.92088 | 119.17762 | 37821 ft | 421 kts | 238° |
| 2026-04-25 09:37 | 41.88515 | 119.11509 | 37827 ft | 422 kts | 238° |
| 2026-04-25 09:37 | 41.84950 | 119.05280 | 37820 ft | 422 kts | 238° |
| 2026-04-25 09:38 | 41.81387 | 118.99069 | 37830 ft | 422 kts | 238° |
| 2026-04-25 09:38 | 41.77830 | 118.92878 | 37840 ft | 421 kts | 238° |
| 2026-04-25 09:39 | 41.74252 | 118.86668 | 37851 ft | 421 kts | 238° |
| 2026-04-25 09:39 | 41.70676 | 118.80473 | 37858 ft | 422 kts | 238° |
| 2026-04-25 09:40 | 41.65311 | 118.71201 | 37872 ft | 423 kts | 238° |
| 2026-04-25 09:40 | 41.61726 | 118.65022 | 37872 ft | 422 kts | 238° |
| 2026-04-25 09:41 | 41.58117 | 118.58813 | 37875 ft | 423 kts | 238° |
| 2026-04-25 09:41 | 41.54534 | 118.52663 | 37878 ft | 422 kts | 238° |
| 2026-04-25 09:42 | 41.50934 | 118.46458 | 37882 ft | 422 kts | 239° |
| 2026-04-25 09:42 | 41.47695 | 118.39976 | 37884 ft | 421 kts | 244° |
| 2026-04-25 09:43 | 41.44653 | 118.33340 | 37880 ft | 421 kts | 243° |
| 2026-04-25 09:43 | 41.41615 | 118.26730 | 37875 ft | 422 kts | 243° |
| 2026-04-25 09:44 | 41.38540 | 118.20052 | 37865 ft | 422 kts | 244° |
| 2026-04-25 09:44 | 41.35475 | 118.13410 | 37855 ft | 423 kts | 244° |
| 2026-04-25 09:45 | 41.32413 | 118.06784 | 37571 ft | 421 kts | 244° |
| 2026-04-25 09:45 | 41.30873 | 118.03461 | 37303 ft | 418 kts | 243° |
| 2026-04-25 09:45 | 41.29365 | 118.00205 | 36930 ft | 415 kts | 244° |
| 2026-04-25 09:46 | 41.27860 | 117.96967 | 36549 ft | 411 kts | 243° |
| 2026-04-25 09:46 | 41.26360 | 117.93739 | 36120 ft | 411 kts | 244° |
| 2026-04-25 09:46 | 41.24869 | 117.90530 | 35526 ft | 413 kts | 244° |
| 2026-04-25 09:46 | 41.23358 | 117.87281 | 34903 ft | 413 kts | 243° |
| 2026-04-25 09:47 | 41.21868 | 117.84079 | 34214 ft | 413 kts | 243° |
| 2026-04-25 09:47 | 41.20360 | 117.80846 | 33506 ft | 413 kts | 243° |
| 2026-04-25 09:47 | 41.18842 | 117.77593 | 32809 ft | 412 kts | 243° |
| 2026-04-25 09:47 | 41.17341 | 117.74382 | 32130 ft | 411 kts | 243° |
| 2026-04-25 09:48 | 41.15840 | 117.71175 | 31484 ft | 409 kts | 242° |
| 2026-04-25 09:48 | 41.14346 | 117.67984 | 30799 ft | 408 kts | 242° |
| 2026-04-25 09:48 | 41.12862 | 117.64822 | 30084 ft | 408 kts | 242° |
| 2026-04-25 09:48 | 41.11362 | 117.61631 | 29350 ft | 408 kts | 242° |
| 2026-04-25 09:49 | 41.09863 | 117.58442 | 28584 ft | 409 kts | 242° |
| 2026-04-25 09:49 | 41.08368 | 117.55265 | 27760 ft | 410 kts | 242° |
| 2026-04-25 09:49 | 41.06866 | 117.52079 | 27227 ft | 405 kts | 242° |
| 2026-04-25 09:49 | 41.05376 | 117.48956 | 26775 ft | 399 kts | 239° |
| 2026-04-25 09:50 | 41.03576 | 117.46149 | 26291 ft | 399 kts | 228° |
| 2026-04-25 09:50 | 41.01420 | 117.43903 | 25798 ft | 400 kts | 217° |
| 2026-04-25 09:50 | 40.98937 | 117.42209 | 25292 ft | 401 kts | 207° |
| 2026-04-25 09:50 | 40.96364 | 117.40863 | 24798 ft | 398 kts | 206° |
| 2026-04-25 09:51 | 40.93802 | 117.39571 | 24301 ft | 394 kts | 206° |
| 2026-04-25 09:51 | 40.91252 | 117.38290 | 23809 ft | 391 kts | 206° |
| 2026-04-25 09:51 | 40.88703 | 117.37003 | 23322 ft | 387 kts | 206° |
| 2026-04-25 09:51 | 40.86231 | 117.35750 | 22851 ft | 383 kts | 206° |
| 2026-04-25 09:52 | 40.83754 | 117.34490 | 22377 ft | 380 kts | 206° |
| 2026-04-25 09:52 | 40.81289 | 117.33235 | 21905 ft | 377 kts | 206° |
| 2026-04-25 09:52 | 40.78866 | 117.32001 | 21436 ft | 375 kts | 206° |
| 2026-04-25 09:52 | 40.76440 | 117.30769 | 20963 ft | 372 kts | 205° |
| 2026-04-25 09:53 | 40.74059 | 117.29494 | 20470 ft | 367 kts | 212° |
| 2026-04-25 09:53 | 40.72048 | 117.27599 | 19986 ft | 355 kts | 230° |
| 2026-04-25 09:53 | 40.70574 | 117.25047 | 19501 ft | 345 kts | 245° |
| 2026-04-25 09:53 | 40.69658 | 117.22189 | 19038 ft | 339 kts | 253° |
| 2026-04-25 09:54 | 40.68864 | 117.19273 | 18570 ft | 336 kts | 253° |
| 2026-04-25 09:54 | 40.68080 | 117.16388 | 18102 ft | 334 kts | 253° |
| 2026-04-25 09:54 | 40.67298 | 117.13532 | 17636 ft | 332 kts | 253° |
| 2026-04-25 09:54 | 40.66512 | 117.10688 | 17178 ft | 330 kts | 253° |
| 2026-04-25 09:55 | 40.65735 | 117.07880 | 16724 ft | 327 kts | 253° |
| 2026-04-25 09:55 | 40.64961 | 117.05096 | 16273 ft | 325 kts | 253° |
| 2026-04-25 09:55 | 40.64188 | 117.02328 | 15820 ft | 323 kts | 253° |
| 2026-04-25 09:55 | 40.63411 | 116.99548 | 15368 ft | 320 kts | 253° |
| 2026-04-25 09:56 | 40.62652 | 116.96834 | 14927 ft | 318 kts | 252° |
| 2026-04-25 09:56 | 40.61894 | 116.94131 | 14481 ft | 316 kts | 253° |
| 2026-04-25 09:56 | 40.61103 | 116.91419 | 14026 ft | 315 kts | 249° |
| 2026-04-25 09:56 | 40.60024 | 116.88924 | 13573 ft | 317 kts | 239° |
| 2026-04-25 09:57 | 40.58630 | 116.86749 | 13421 ft | 308 kts | 229° |
| 2026-04-25 09:57 | 40.57069 | 116.84901 | 13440 ft | 293 kts | 226° |
| 2026-04-25 09:57 | 40.55564 | 116.83209 | 13458 ft | 277 kts | 225° |
| 2026-04-25 09:57 | 40.54144 | 116.81625 | 13475 ft | 261 kts | 226° |
| 2026-04-25 09:58 | 40.52795 | 116.80114 | 13498 ft | 254 kts | 226° |
| 2026-04-25 09:58 | 40.51450 | 116.78594 | 13526 ft | 254 kts | 226° |
| 2026-04-25 09:58 | 40.50095 | 116.77065 | 13553 ft | 255 kts | 226° |
| 2026-04-25 09:58 | 40.48768 | 116.75571 | 13577 ft | 254 kts | 226° |
| 2026-04-25 09:59 | 40.47410 | 116.74043 | 13602 ft | 254 kts | 226° |
| 2026-04-25 09:59 | 40.46083 | 116.72553 | 13619 ft | 254 kts | 226° |
| 2026-04-25 09:59 | 40.44725 | 116.71028 | 13628 ft | 254 kts | 226° |
| 2026-04-25 09:59 | 40.43336 | 116.69616 | 13631 ft | 259 kts | 217° |
| 2026-04-25 10:00 | 40.41668 | 116.68639 | 13636 ft | 267 kts | 202° |
| 2026-04-25 10:00 | 40.39813 | 116.68233 | 13635 ft | 274 kts | 187° |
| 2026-04-25 10:00 | 40.37884 | 116.68385 | 13631 ft | 277 kts | 179° |
| 2026-04-25 10:00 | 40.35983 | 116.68692 | 13629 ft | 278 kts | 178° |
| 2026-04-25 10:01 | 40.34048 | 116.69024 | 13625 ft | 278 kts | 178° |
| 2026-04-25 10:01 | 40.32116 | 116.69351 | 13606 ft | 277 kts | 178° |
| 2026-04-25 10:01 | 40.30226 | 116.69661 | 13602 ft | 277 kts | 178° |
| 2026-04-25 10:01 | 40.28308 | 116.69970 | 13597 ft | 277 kts | 179° |
| 2026-04-25 10:02 | 40.26395 | 116.70272 | 13598 ft | 277 kts | 178° |
| 2026-04-25 10:02 | 40.24471 | 116.70574 | 13592 ft | 278 kts | 178° |
| 2026-04-25 10:02 | 40.22533 | 116.70879 | 13602 ft | 278 kts | 178° |
| 2026-04-25 10:02 | 40.20623 | 116.71178 | 13598 ft | 278 kts | 178° |
| 2026-04-25 10:03 | 40.18709 | 116.71481 | 13592 ft | 278 kts | 178° |
| 2026-04-25 10:03 | 40.16788 | 116.71781 | 13573 ft | 278 kts | 178° |
| 2026-04-25 10:03 | 40.14860 | 116.72083 | 13585 ft | 277 kts | 178° |
| 2026-04-25 10:03 | 40.12948 | 116.72382 | 13593 ft | 278 kts | 178° |
| 2026-04-25 10:04 | 40.11019 | 116.72685 | 13590 ft | 278 kts | 178° |
| 2026-04-25 10:04 | 40.09109 | 116.72982 | 13595 ft | 278 kts | 178° |
| 2026-04-25 10:04 | 40.07189 | 116.73282 | 13592 ft | 277 kts | 178° |
| 2026-04-25 10:04 | 40.05267 | 116.73583 | 13592 ft | 278 kts | 178° |
| 2026-04-25 10:05 | 40.03355 | 116.73880 | 13592 ft | 277 kts | 178° |
| 2026-04-25 10:05 | 40.01427 | 116.74179 | 13590 ft | 277 kts | 178° |
| 2026-04-25 10:05 | 39.99524 | 116.74474 | 13583 ft | 278 kts | 178° |
| 2026-04-25 10:05 | 39.97586 | 116.74776 | 13574 ft | 278 kts | 178° |
| 2026-04-25 10:06 | 39.95686 | 116.75069 | 13580 ft | 278 kts | 178° |
| 2026-04-25 10:06 | 39.93758 | 116.75368 | 13589 ft | 278 kts | 178° |
| 2026-04-25 10:06 | 39.91851 | 116.75665 | 13582 ft | 278 kts | 178° |
| 2026-04-25 10:06 | 39.89911 | 116.75966 | 13592 ft | 278 kts | 178° |
| 2026-04-25 10:07 | 39.87987 | 116.76263 | 13596 ft | 278 kts | 178° |
| 2026-04-25 10:07 | 39.86050 | 116.76563 | 13580 ft | 278 kts | 178° |
| 2026-04-25 10:07 | 39.84110 | 116.76866 | 13579 ft | 277 kts | 178° |
| 2026-04-25 10:07 | 39.82183 | 116.77164 | 13582 ft | 277 kts | 178° |
| 2026-04-25 10:08 | 39.80281 | 116.77459 | 13590 ft | 276 kts | 178° |
| 2026-04-25 10:08 | 39.78370 | 116.77756 | 13593 ft | 276 kts | 178° |
| 2026-04-25 10:08 | 39.76457 | 116.78051 | 13594 ft | 276 kts | 178° |
| 2026-04-25 10:08 | 39.74535 | 116.78348 | 13591 ft | 276 kts | 178° |
| 2026-04-25 10:09 | 39.72622 | 116.78643 | 13594 ft | 277 kts | 178° |
| 2026-04-25 10:09 | 39.70698 | 116.78941 | 13594 ft | 277 kts | 178° |
| 2026-04-25 10:09 | 39.68795 | 116.79233 | 13590 ft | 277 kts | 178° |
| 2026-04-25 10:09 | 39.66882 | 116.79529 | 13434 ft | 280 kts | 178° |
| 2026-04-25 10:10 | 39.64917 | 116.79829 | 13006 ft | 283 kts | 177° |
| 2026-04-25 10:10 | 39.62967 | 116.80128 | 12601 ft | 284 kts | 177° |
| 2026-04-25 10:10 | 39.61023 | 116.80360 | 12205 ft | 283 kts | 183° |
| 2026-04-25 10:10 | 39.59065 | 116.80242 | 11822 ft | 280 kts | 191° |
| 2026-04-25 10:11 | 39.57184 | 116.79672 | 11482 ft | 273 kts | 211° |
| 2026-04-25 10:11 | 39.55794 | 116.78145 | 11182 ft | 259 kts | 240° |
| 2026-04-25 10:11 | 39.55139 | 116.76053 | 10897 ft | 249 kts | 264° |
| 2026-04-25 10:11 | 39.55106 | 116.73839 | 10633 ft | 243 kts | 273° |
| 2026-04-25 10:12 | 39.55157 | 116.71661 | 10378 ft | 239 kts | 273° |
| 2026-04-25 10:12 | 39.55198 | 116.69522 | 10101 ft | 237 kts | 272° |
| 2026-04-25 10:12 | 39.55255 | 116.65274 | 9467 ft | 235 kts | 272° |
| 2026-04-25 10:13 | 39.55279 | 116.63165 | 9163 ft | 234 kts | 272° |
| 2026-04-25 10:13 | 39.55302 | 116.61085 | 8851 ft | 233 kts | 271° |
| 2026-04-25 10:13 | 39.55327 | 116.58891 | 7988 ft | 257 kts | 271° |
| 2026-04-25 10:13 | 39.55677 | 116.56626 | 7455 ft | 264 kts | 292° |
| 2026-04-25 10:14 | 39.56704 | 116.54649 | 7150 ft | 264 kts | 313° |
| 2026-04-25 10:14 | 39.58225 | 116.53320 | 6868 ft | 266 kts | 335° |
| 2026-04-25 10:14 | 39.60007 | 116.52769 | 6604 ft | 266 kts | 349° |
| 2026-04-25 10:14 | 39.61827 | 116.52482 | 6363 ft | 261 kts | 350° |
| 2026-04-25 10:15 | 39.63611 | 116.52224 | 6131 ft | 256 kts | 350° |
| 2026-04-25 10:15 | 39.65386 | 116.51964 | 5900 ft | 252 kts | 349° |
| 2026-04-25 10:15 | 39.67100 | 116.51704 | 5644 ft | 248 kts | 349° |
| 2026-04-25 10:15 | 39.68820 | 116.51437 | 5349 ft | 247 kts | 349° |
| 2026-04-25 10:16 | 39.70529 | 116.51169 | 5041 ft | 247 kts | 349° |
| 2026-04-25 10:16 | 39.72239 | 116.50898 | 4727 ft | 248 kts | 349° |
| 2026-04-25 10:16 | 39.73931 | 116.50631 | 4431 ft | 247 kts | 349° |
| 2026-04-25 10:16 | 39.75651 | 116.50359 | 4130 ft | 247 kts | 349° |
| 2026-04-25 10:17 | 39.77364 | 116.50088 | 3823 ft | 247 kts | 349° |
| 2026-04-25 10:17 | 39.79004 | 116.49595 | 3516 ft | 240 kts | 324° |
| 2026-04-25 10:17 | 39.80080 | 116.48101 | 3296 ft | 222 kts | 282° |
| 2026-04-25 10:17 | 39.80186 | 116.46275 | 3273 ft | 192 kts | 255° |
| 2026-04-25 10:18 | 39.79956 | 116.44633 | 3193 ft | 178 kts | 255° |
| 2026-04-25 10:18 | 39.79764 | 116.43095 | 3076 ft | 164 kts | 255° |
| 2026-04-25 10:18 | 39.79608 | 116.41696 | 2930 ft | 148 kts | 255° |
| 2026-04-25 10:18 | 39.79474 | 116.40420 | 2834 ft | 139 kts | 256° |
| 2026-04-25 10:19 | 39.79347 | 116.39188 | 2636 ft | 136 kts | 255° |
| 2026-04-25 10:19 | 39.79229 | 116.38006 | 2459 ft | 133 kts | 256° |
| 2026-04-25 10:19 | 39.79108 | 116.36801 | 2270 ft | 133 kts | 256° |
| 2026-04-25 10:19 | 39.78963 | 116.35617 | 2171 ft | 130 kts | 242° |
| 2026-04-25 10:20 | 39.78303 | 116.34880 | 2184 ft | 132 kts | 197° |
| 2026-04-25 10:20 | 39.77379 | 116.34763 | 2194 ft | 135 kts | 182° |
| 2026-04-25 10:20 | 39.76426 | 116.34843 | 2176 ft | 134 kts | 178° |
| 2026-04-25 10:20 | 39.75482 | 116.34973 | 2170 ft | 134 kts | 177° |
| 2026-04-25 10:21 | 39.74548 | 116.35112 | 2170 ft | 134 kts | 177° |
| 2026-04-25 10:21 | 39.73629 | 116.35252 | 2171 ft | 134 kts | 176° |
| 2026-04-25 10:21 | 39.72696 | 116.35397 | 2174 ft | 134 kts | 176° |
| 2026-04-25 10:21 | 39.71769 | 116.35543 | 2173 ft | 134 kts | 176° |
| 2026-04-25 10:22 | 39.70840 | 116.35691 | 2175 ft | 134 kts | 177° |
| 2026-04-25 10:22 | 39.69914 | 116.35838 | 2184 ft | 134 kts | 177° |
| 2026-04-25 10:22 | 39.68980 | 116.35988 | 2181 ft | 134 kts | 176° |
| 2026-04-25 10:22 | 39.68054 | 116.36137 | 2188 ft | 134 kts | 176° |
| 2026-04-25 10:23 | 39.67132 | 116.36284 | 2192 ft | 134 kts | 177° |
| 2026-04-25 10:23 | 39.66198 | 116.36433 | 2191 ft | 133 kts | 176° |
| 2026-04-25 10:23 | 39.65274 | 116.36581 | 2189 ft | 134 kts | 176° |
| 2026-04-25 10:23 | 39.64349 | 116.36728 | 2191 ft | 134 kts | 176° |
| 2026-04-25 10:24 | 39.63428 | 116.36874 | 2192 ft | 134 kts | 176° |
| 2026-04-25 10:24 | 39.62494 | 116.37023 | 2127 ft | 134 kts | 176° |
| 2026-04-25 10:24 | 39.61575 | 116.37170 | 1955 ft | 133 kts | 176° |
| 2026-04-25 10:24 | 39.60660 | 116.37315 | 1788 ft | 133 kts | 176° |
| 2026-04-25 10:25 | 39.59733 | 116.37462 | 1620 ft | 133 kts | 175° |
| 2026-04-25 10:25 | 39.58820 | 116.37608 | 1447 ft | 132 kts | 176° |
| 2026-04-25 10:25 | 39.57904 | 116.37753 | 1278 ft | 132 kts | 175° |
| 2026-04-25 10:25 | 39.56994 | 116.37897 | 1106 ft | 131 kts | 175° |
| 2026-04-25 10:26 | 39.56083 | 116.38042 | 937 ft | 131 kts | 175° |
| 2026-04-25 10:26 | 39.55187 | 116.38183 | 767 ft | 131 kts | 175° |
| 2026-04-25 10:26 | 39.54277 | 116.38332 | 577 ft | 130 kts | 175° |
| 2026-04-25 10:26 | 39.53378 | 116.38480 | 416 ft | 130 kts | 175° |
| 2026-04-25 10:27 | 39.52488 | 116.38618 | 266 ft | 129 kts | 175° |
| 2026-04-25 10:27 | 39.51589 | 116.38761 | 114 ft | 128 kts | 175° |
| 2026-04-25 10:27 | 39.50728 | 116.38891 | 89 ft | 106 kts | 174° |
| 2026-04-25 10:27 | 39.50156 | 116.38981 | 89 ft | 56 kts | 172° |
| 2026-04-25 10:28 | 39.49889 | 116.39027 | 89 ft | 30 kts | 171° |
| 2026-04-25 10:28 | 39.49731 | 116.39078 | 89 ft | 17 kts | 154° |
| 2026-04-25 10:28 | 39.49625 | 116.39159 | 89 ft | 17 kts | 147° |
| 2026-04-25 10:28 | 39.49523 | 116.39246 | 89 ft | 17 kts | 146° |
| 2026-04-25 10:29 | 39.49416 | 116.39318 | 89 ft | 17 kts | 168° |
| 2026-04-25 10:29 | 39.49298 | 116.39359 | 89 ft | 17 kts | 146° |
| 2026-04-25 10:29 | 39.49198 | 116.39445 | 89 ft | 17 kts | 146° |
| 2026-04-25 10:29 | 39.49150 | 116.39569 | 89 ft | 16 kts | 82° |
| 2026-04-25 10:30 | 39.49165 | 116.39721 | 89 ft | 17 kts | 82° |
| 2026-04-25 10:30 | 39.49175 | 116.39825 | 89 ft | 17 kts | 83° |
| 2026-04-25 10:30 | 39.49194 | 116.40031 | 89 ft | 17 kts | 83° |
| 2026-04-25 10:30 | 39.49209 | 116.40193 | 89 ft | 18 kts | 82° |
| 2026-04-25 10:31 | 39.49226 | 116.40367 | 89 ft | 19 kts | 83° |
| 2026-04-25 10:31 | 39.49310 | 116.40456 | 89 ft | 18 kts | 353° |
| 2026-04-25 10:31 | 39.49442 | 116.40434 | 89 ft | 20 kts | 353° |
| 2026-04-25 10:31 | 39.49591 | 116.40410 | 89 ft | 23 kts | 353° |
| 2026-04-25 10:32 | 39.49761 | 116.40383 | 89 ft | 25 kts | 353° |
| 2026-04-25 10:32 | 39.49936 | 116.40356 | 89 ft | 24 kts | 353° |
| 2026-04-25 10:32 | 39.50079 | 116.40336 | 89 ft | 15 kts | 3° |
| 2026-04-25 10:32 | 39.50131 | 116.40453 | 89 ft | 18 kts | 83° |
| 2026-04-25 10:33 | 39.50149 | 116.40648 | 89 ft | 24 kts | 83° |
| 2026-04-25 10:33 | 39.50172 | 116.40891 | 89 ft | 27 kts | 83° |
| 2026-04-25 10:33 | 39.50195 | 116.41138 | 89 ft | 27 kts | 82° |
| 2026-04-25 10:33 | 39.50217 | 116.41364 | 89 ft | 16 kts | 83° |
| 2026-04-25 10:34 | 39.50277 | 116.41464 | 89 ft | 16 kts | 356° |
| 2026-04-25 10:34 | 39.50391 | 116.41447 | 89 ft | 16 kts | 352° |
| 2026-04-25 10:34 | 39.50509 | 116.41427 | 89 ft | 17 kts | 352° |
| 2026-04-25 10:34 | 39.50621 | 116.41370 | 89 ft | 17 kts | 339° |
| 2026-04-25 10:35 | 39.50709 | 116.41375 | 89 ft | 11 kts | 14° |
| 2026-04-25 10:35 | 39.50788 | 116.41415 | 89 ft | 8 kts | 23° |
| 2026-04-25 10:35 | 39.50806 | 116.41425 | 89 ft | 0 kts | 23° |